sensor_id;sensor_type;location;lat;lon;timestamp;pressure;altitude;pressure_sealevel;temperature;humidity
1736;BME280;865;53.672;10.250;2022-10-31T00:00:43;101459.59;;;11.14;100.00
1736;BME280;865;53.672;10.250;2022-10-31T00:03:10;101463.97;;;11.12;100.00
1736;BME280;865;53.672;10.250;2022-10-31T00:05:40;101466.63;;;11.10;100.00
1736;BME280;865;53.672;10.250;2022-10-31T00:08:07;101474.47;;;11.06;100.00
1736;BME280;865;53.672;10.250;2022-10-31T00:10:33;101468.47;;;11.01;100.00
1736;BME280;865;53.672;10.250;2022-10-31T00:13:02;101476.31;;;10.94;100.00
1736;BME280;865;53.672;10.250;2022-10-31T00:15:29;101466.75;;;10.97;100.00
1736;BME280;865;53.672;10.250;2022-10-31T00:17:55;101474.59;;;10.95;100.00
1736;BME280;865;53.672;10.250;2022-10-31T00:20:22;101472.88;;;10.91;100.00
1736;BME280;865;53.672;10.250;2022-10-31T00:22:48;101471.09;;;10.94;100.00
1736;BME280;865;53.672;10.250;2022-10-31T00:25:14;101473.72;;;10.94;100.00
1736;BME280;865;53.672;10.250;2022-10-31T00:27:41;101484.16;;;10.96;100.00
1736;BME280;865;53.672;10.250;2022-10-31T00:30:07;101486.81;;;10.90;100.00
1736;BME280;865;53.672;10.250;2022-10-31T00:32:34;101479.84;;;10.90;100.00
1736;BME280;865;53.672;10.250;2022-10-31T00:35:00;101485.06;;;10.92;100.00
1736;BME280;865;53.672;10.250;2022-10-31T00:37:26;101488.56;;;10.88;100.00
1736;BME280;865;53.672;10.250;2022-10-31T00:39:53;101488.53;;;10.91;100.00
1736;BME280;865;53.672;10.250;2022-10-31T00:42:19;101488.56;;;10.88;100.00
1736;BME280;865;53.672;10.250;2022-10-31T00:44:45;101496.44;;;10.86;100.00
1736;BME280;865;53.672;10.250;2022-10-31T00:47:12;101492.91;;;10.92;100.00
1736;BME280;865;53.672;10.250;2022-10-31T00:49:38;101496.41;;;10.89;100.00
1736;BME280;865;53.672;10.250;2022-10-31T00:52:04;101505.09;;;10.88;100.00
1736;BME280;865;53.672;10.250;2022-10-31T00:54:31;101495.53;;;10.89;100.00
1736;BME280;865;53.672;10.250;2022-10-31T00:56:57;101495.50;;;10.93;100.00
1736;BME280;865;53.672;10.250;2022-10-31T00:59:24;101491.97;;;10.94;100.00
1736;BME280;865;53.672;10.250;2022-10-31T01:01:50;101484.13;;;11.01;100.00
1736;BME280;865;53.672;10.250;2022-10-31T01:04:16;101490.19;;;11.04;100.00
1736;BME280;865;53.672;10.250;2022-10-31T01:06:43;101477.16;;;11.00;100.00
1736;BME280;865;53.672;10.250;2022-10-31T01:09:09;101478.06;;;10.95;100.00
1736;BME280;865;53.672;10.250;2022-10-31T01:11:35;101484.16;;;10.94;100.00
1736;BME280;865;53.672;10.250;2022-10-31T01:14:02;101488.50;;;10.94;100.00
1736;BME280;865;53.672;10.250;2022-10-31T01:16:28;101489.34;;;11.01;100.00
1736;BME280;865;53.672;10.250;2022-10-31T01:18:55;101496.25;;;11.05;100.00
1736;BME280;865;53.672;10.250;2022-10-31T01:21:24;101497.94;;;11.09;100.00
1736;BME280;865;53.672;10.250;2022-10-31T01:23:53;101502.31;;;11.08;100.00
1736;BME280;865;53.672;10.250;2022-10-31T01:26:22;101495.25;;;11.18;100.00
1736;BME280;865;53.672;10.250;2022-10-31T01:29:04;101507.41;;;11.22;100.00
1736;BME280;865;53.672;10.250;2022-10-31T01:31:33;101503.94;;;11.22;100.00
1736;BME280;865;53.672;10.250;2022-10-31T01:34:00;101507.38;;;11.25;100.00
1736;BME280;865;53.672;10.250;2022-10-31T01:36:35;101502.97;;;11.27;100.00
1736;BME280;865;53.672;10.250;2022-10-31T01:39:14;101515.16;;;11.31;100.00
1736;BME280;865;53.672;10.250;2022-10-31T01:41:49;101515.09;;;11.37;100.00
1736;BME280;865;53.672;10.250;2022-10-31T01:49:40;101531.41;;;11.58;100.00
1736;BME280;865;53.672;10.250;2022-10-31T01:55:05;101531.44;;;11.55;100.00
1736;BME280;865;53.672;10.250;2022-10-31T01:57:35;101541.00;;;11.56;100.00
1736;BME280;865;53.672;10.250;2022-10-31T02:00:07;101533.06;;;11.67;100.00
1736;BME280;865;53.672;10.250;2022-10-31T02:02:35;101541.63;;;11.81;100.00
1736;BME280;865;53.672;10.250;2022-10-31T02:05:05;101538.09;;;11.80;100.00
1736;BME280;865;53.672;10.250;2022-10-31T02:07:43;101552.88;;;11.88;100.00
1736;BME280;865;53.672;10.250;2022-10-31T02:10:10;101539.72;;;11.94;100.00
1736;BME280;865;53.672;10.250;2022-10-31T02:12:37;101558.03;;;11.94;100.00
1736;BME280;865;53.672;10.250;2022-10-31T02:15:05;101567.69;;;11.89;100.00
1736;BME280;865;53.672;10.250;2022-10-31T02:17:32;101558.13;;;11.88;100.00
1736;BME280;865;53.672;10.250;2022-10-31T02:20:18;101565.88;;;11.92;100.00
1736;BME280;865;53.672;10.250;2022-10-31T02:32:03;101572.16;;;11.74;100.00
1736;BME280;865;53.672;10.250;2022-10-31T02:35:46;101573.00;;;11.78;100.00
1736;BME280;865;53.672;10.250;2022-10-31T02:37:51;101574.72;;;11.79;100.00
1736;BME280;865;53.672;10.250;2022-10-31T02:40:27;101579.03;;;11.88;100.00
1736;BME280;865;53.672;10.250;2022-10-31T02:45:30;101578.03;;;11.99;100.00
1736;BME280;865;53.672;10.250;2022-10-31T02:48:08;101585.91;;;11.96;100.00
1736;BME280;865;53.672;10.250;2022-10-31T02:50:40;101588.47;;;11.99;100.00
1736;BME280;865;53.672;10.250;2022-10-31T02:53:08;101589.22;;;12.07;100.00
1736;BME280;865;53.672;10.250;2022-10-31T02:58:02;101590.00;;;12.16;100.00
1736;BME280;865;53.672;10.250;2022-10-31T03:01:26;101593.34;;;12.27;100.00
1736;BME280;865;53.672;10.250;2022-10-31T03:03:45;101592.41;;;12.31;100.00
1736;BME280;865;53.672;10.250;2022-10-31T03:06:18;101602.88;;;12.31;100.00
1736;BME280;865;53.672;10.250;2022-10-31T03:08:59;101604.56;;;12.37;100.00
1736;BME280;865;53.672;10.250;2022-10-31T03:11:32;101602.78;;;12.39;100.00
1736;BME280;865;53.672;10.250;2022-10-31T03:14:10;101604.47;;;12.43;100.00
1736;BME280;865;53.672;10.250;2022-10-31T03:16:47;101613.22;;;12.42;100.00
1736;BME280;865;53.672;10.250;2022-10-31T03:19:27;101615.84;;;12.43;100.00
1736;BME280;865;53.672;10.250;2022-10-31T03:22:03;101614.97;;;12.40;100.00
1736;BME280;865;53.672;10.250;2022-10-31T03:24:33;101620.22;;;12.41;100.00
1736;BME280;865;53.672;10.250;2022-10-31T03:27:02;101620.09;;;12.49;100.00
1736;BME280;865;53.672;10.250;2022-10-31T03:29:34;101617.47;;;12.49;100.00
1736;BME280;865;53.672;10.250;2022-10-31T03:32:22;101624.50;;;12.45;100.00
1736;BME280;865;53.672;10.250;2022-10-31T03:34:51;101628.84;;;12.48;100.00
1736;BME280;865;53.672;10.250;2022-10-31T03:37:20;101634.06;;;12.48;100.00
1736;BME280;865;53.672;10.250;2022-10-31T03:39:48;101632.44;;;12.41;100.00
1736;BME280;865;53.672;10.250;2022-10-31T03:42:25;101636.78;;;12.42;100.00
1736;BME280;865;53.672;10.250;2022-10-31T03:45:01;101641.22;;;12.34;100.00
1736;BME280;865;53.672;10.250;2022-10-31T03:47:29;101640.41;;;12.31;100.00
1736;BME280;865;53.672;10.250;2022-10-31T03:49:56;101637.81;;;12.28;100.00
1736;BME280;865;53.672;10.250;2022-10-31T03:52:28;101649.97;;;12.32;100.00
1736;BME280;865;53.672;10.250;2022-10-31T03:55:05;101655.28;;;12.26;100.00
1736;BME280;865;53.672;10.250;2022-10-31T03:57:40;101654.47;;;12.21;100.00
1736;BME280;865;53.672;10.250;2022-10-31T04:00:11;101657.94;;;12.22;100.00
1736;BME280;865;53.672;10.250;2022-10-31T04:02:45;101660.59;;;12.20;100.00
1736;BME280;865;53.672;10.250;2022-10-31T04:05:15;101656.22;;;12.19;100.00
1736;BME280;865;53.672;10.250;2022-10-31T04:07:46;101665.75;;;12.26;100.00
1736;BME280;865;53.672;10.250;2022-10-31T04:10:14;101668.31;;;12.28;100.00
1736;BME280;865;53.672;10.250;2022-10-31T04:12:44;101671.84;;;12.25;100.00
1736;BME280;865;53.672;10.250;2022-10-31T04:15:13;101673.66;;;12.19;100.00
1736;BME280;865;53.672;10.250;2022-10-31T04:17:41;101681.59;;;12.14;100.00
1736;BME280;865;53.672;10.250;2022-10-31T04:20:10;101685.84;;;12.21;100.00
1736;BME280;865;53.672;10.250;2022-10-31T04:22:37;101681.47;;;12.23;100.00
1736;BME280;865;53.672;10.250;2022-10-31T04:25:03;101681.47;;;12.23;100.00
1736;BME280;865;53.672;10.250;2022-10-31T04:27:30;101690.19;;;12.22;100.00
1736;BME280;865;53.672;10.250;2022-10-31T04:29:56;101694.53;;;12.26;100.00
1736;BME280;865;53.672;10.250;2022-10-31T04:32:22;101684.91;;;12.28;100.00
1736;BME280;865;53.672;10.250;2022-10-31T04:34:49;101688.44;;;12.26;100.00
1736;BME280;865;53.672;10.250;2022-10-31T04:37:15;101689.38;;;12.19;100.00
1736;BME280;865;53.672;10.250;2022-10-31T04:39:41;101694.59;;;12.19;100.00
1736;BME280;865;53.672;10.250;2022-10-31T04:42:08;101691.09;;;12.23;100.00
1736;BME280;865;53.672;10.250;2022-10-31T04:44:34;101690.19;;;12.22;100.00
1736;BME280;865;53.672;10.250;2022-10-31T04:47:00;101698.00;;;12.25;100.00
1736;BME280;865;53.672;10.250;2022-10-31T04:49:27;101699.75;;;12.26;100.00
1736;BME280;865;53.672;10.250;2022-10-31T04:51:53;101701.47;;;12.27;100.00
1736;BME280;865;53.672;10.250;2022-10-31T04:54:19;101694.44;;;12.31;100.00
1736;BME280;865;53.672;10.250;2022-10-31T04:56:46;101703.22;;;12.28;100.00
1736;BME280;865;53.672;10.250;2022-10-31T04:59:12;101707.53;;;12.32;100.00
1736;BME280;865;53.672;10.250;2022-10-31T05:01:38;101711.16;;;12.21;100.00
1736;BME280;865;53.672;10.250;2022-10-31T05:04:05;101712.88;;;12.23;100.00
1736;BME280;865;53.672;10.250;2022-10-31T05:06:31;101716.31;;;12.25;100.00
1736;BME280;865;53.672;10.250;2022-10-31T05:08:57;101702.44;;;12.20;100.00
1736;BME280;865;53.672;10.250;2022-10-31T05:11:24;101714.63;;;12.21;100.00
1736;BME280;865;53.672;10.250;2022-10-31T05:13:51;101712.06;;;12.15;100.00
1736;BME280;865;53.672;10.250;2022-10-31T05:16:17;101707.75;;;12.14;100.00
1736;BME280;865;53.672;10.250;2022-10-31T05:18:43;101709.53;;;12.09;100.00
1736;BME280;865;53.672;10.250;2022-10-31T05:21:09;101712.16;;;12.09;100.00
1736;BME280;865;53.672;10.250;2022-10-31T05:23:36;101711.19;;;12.16;100.00
1736;BME280;865;53.672;10.250;2022-10-31T05:26:02;101712.00;;;12.23;100.00
1736;BME280;865;53.672;10.250;2022-10-31T05:28:28;101717.22;;;12.24;100.00
1736;BME280;865;53.672;10.250;2022-10-31T05:30:55;101718.13;;;12.20;100.00
1736;BME280;865;53.672;10.250;2022-10-31T05:33:21;101718.13;;;12.19;100.00
1736;BME280;865;53.672;10.250;2022-10-31T05:35:47;101725.13;;;12.18;100.00
1736;BME280;865;53.672;10.250;2022-10-31T05:38:14;101717.28;;;12.20;100.00
1736;BME280;865;53.672;10.250;2022-10-31T05:40:40;101719.84;;;12.21;100.00
1736;BME280;865;53.672;10.250;2022-10-31T05:43:06;101722.47;;;12.23;100.00
1736;BME280;865;53.672;10.250;2022-10-31T05:45:33;101721.63;;;12.19;100.00
1736;BME280;865;53.672;10.250;2022-10-31T05:48:00;101726.03;;;12.14;100.00
1736;BME280;865;53.672;10.250;2022-10-31T05:50:30;101721.63;;;12.19;100.00
1736;BME280;865;53.672;10.250;2022-10-31T05:53:00;101720.75;;;12.20;100.00
1736;BME280;865;53.672;10.250;2022-10-31T05:55:27;101720.72;;;12.22;100.00
1736;BME280;865;53.672;10.250;2022-10-31T05:57:54;101715.44;;;12.25;100.00
1736;BME280;865;53.672;10.250;2022-10-31T06:00:22;101717.16;;;12.29;100.00
1736;BME280;865;53.672;10.250;2022-10-31T06:02:49;101718.91;;;12.31;100.00
1736;BME280;865;53.672;10.250;2022-10-31T06:05:15;101709.34;;;12.26;100.00
1736;BME280;865;53.672;10.250;2022-10-31T06:07:42;101724.16;;;12.27;100.00
1736;BME280;865;53.672;10.250;2022-10-31T06:10:09;101729.38;;;12.28;100.00
1736;BME280;865;53.672;10.250;2022-10-31T06:12:35;101728.47;;;12.32;100.00
1736;BME280;865;53.672;10.250;2022-10-31T06:15:07;101719.72;;;12.35;100.00
1736;BME280;865;53.672;10.250;2022-10-31T06:17:35;101728.53;;;12.26;100.00
1736;BME280;865;53.672;10.250;2022-10-31T06:20:02;101726.78;;;12.25;100.00
1736;BME280;865;53.672;10.250;2022-10-31T06:22:29;101729.44;;;12.24;100.00
1736;BME280;865;53.672;10.250;2022-10-31T06:24:55;101738.13;;;12.26;100.00
1736;BME280;865;53.672;10.250;2022-10-31T06:27:21;101736.38;;;12.25;100.00
1736;BME280;865;53.672;10.250;2022-10-31T06:29:48;101739.06;;;12.20;100.00
1736;BME280;865;53.672;10.250;2022-10-31T06:32:15;101739.06;;;12.19;100.00
1736;BME280;865;53.672;10.250;2022-10-31T06:34:42;101741.63;;;12.25;100.00
1736;BME280;865;53.672;10.250;2022-10-31T06:37:10;101744.19;;;12.29;100.00
1736;BME280;865;53.672;10.250;2022-10-31T06:39:36;101747.72;;;12.28;100.00
1736;BME280;865;53.672;10.250;2022-10-31T06:42:03;101763.41;;;12.28;100.00
1736;BME280;865;53.672;10.250;2022-10-31T06:44:30;101765.13;;;12.29;100.00
1736;BME280;865;53.672;10.250;2022-10-31T06:46:57;101767.75;;;12.29;100.00
1736;BME280;865;53.672;10.250;2022-10-31T06:49:23;101758.13;;;12.31;100.00
1736;BME280;865;53.672;10.250;2022-10-31T06:51:50;101757.25;;;12.32;100.00
1736;BME280;865;53.672;10.250;2022-10-31T06:54:17;101761.63;;;12.30;100.00
1736;BME280;865;53.672;10.250;2022-10-31T06:56:46;101762.47;;;12.31;100.00
1736;BME280;865;53.672;10.250;2022-10-31T06:59:13;101766.03;;;12.27;100.00
1736;BME280;865;53.672;10.250;2022-10-31T07:01:40;101775.63;;;12.26;100.00
1736;BME280;865;53.672;10.250;2022-10-31T07:04:10;101770.34;;;12.29;100.00
1736;BME280;865;53.672;10.250;2022-10-31T07:06:37;101781.69;;;12.31;100.00
1736;BME280;865;53.672;10.250;2022-10-31T07:09:04;101785.13;;;12.34;100.00
1736;BME280;865;53.672;10.250;2022-10-31T07:11:31;101792.13;;;12.35;100.00
1736;BME280;865;53.672;10.250;2022-10-31T07:13:57;101792.13;;;12.35;100.00
1736;BME280;865;53.672;10.250;2022-10-31T07:16:24;101799.09;;;12.31;100.00
1736;BME280;865;53.672;10.250;2022-10-31T07:18:50;101797.34;;;12.33;100.00
1736;BME280;865;53.672;10.250;2022-10-31T07:21:16;101793.88;;;12.32;100.00
1736;BME280;865;53.672;10.250;2022-10-31T07:23:43;101792.16;;;12.31;100.00
1736;BME280;865;53.672;10.250;2022-10-31T07:26:09;101807.00;;;12.26;100.00
1736;BME280;865;53.672;10.250;2022-10-31T07:28:36;101801.78;;;12.25;100.00
1736;BME280;865;53.672;10.250;2022-10-31T07:31:02;101807.03;;;12.23;100.00
1736;BME280;865;53.672;10.250;2022-10-31T07:33:28;101816.66;;;12.23;100.00
1736;BME280;865;53.672;10.250;2022-10-31T07:35:55;101817.44;;;12.28;100.00
1736;BME280;865;53.672;10.250;2022-10-31T07:38:21;101812.22;;;12.29;100.00
1736;BME280;865;53.672;10.250;2022-10-31T07:40:52;101803.56;;;12.23;100.00
1736;BME280;865;53.672;10.250;2022-10-31T07:43:19;101817.69;;;12.00;100.00
1736;BME280;865;53.672;10.250;2022-10-31T07:45:52;101821.16;;;12.04;100.00
1736;BME280;865;53.672;10.250;2022-10-31T07:48:19;101821.97;;;12.12;100.00
1736;BME280;865;53.672;10.250;2022-10-31T07:50:46;101818.47;;;12.10;100.00
1736;BME280;865;53.672;10.250;2022-10-31T07:53:14;101819.31;;;12.15;100.00
1736;BME280;865;53.672;10.250;2022-10-31T07:55:40;101823.69;;;12.13;100.00
1736;BME280;865;53.672;10.250;2022-10-31T07:58:16;101825.53;;;12.03;100.00
1736;BME280;865;53.672;10.250;2022-10-31T08:00:44;101825.53;;;12.03;100.00
1736;BME280;865;53.672;10.250;2022-10-31T08:03:13;101831.63;;;12.04;100.00
1736;BME280;865;53.672;10.250;2022-10-31T08:05:40;101832.47;;;12.04;100.00
1736;BME280;865;53.672;10.250;2022-10-31T08:08:08;101828.88;;;12.16;100.00
1736;BME280;865;53.672;10.250;2022-10-31T08:10:35;101836.66;;;12.25;100.00
1736;BME280;865;53.672;10.250;2022-10-31T08:13:07;101841.00;;;12.29;100.00
1736;BME280;865;53.672;10.250;2022-10-31T08:15:34;101830.59;;;12.23;100.00
1736;BME280;865;53.672;10.250;2022-10-31T08:18:05;101830.59;;;12.22;100.00
1736;BME280;865;53.672;10.250;2022-10-31T08:20:31;101833.25;;;12.17;100.00
1736;BME280;865;53.672;10.250;2022-10-31T08:23:03;101823.66;;;12.18;100.00
1736;BME280;865;53.672;10.250;2022-10-31T08:25:31;101821.75;;;12.34;100.00
1736;BME280;865;53.672;10.250;2022-10-31T08:28:04;101826.09;;;12.36;100.00
1736;BME280;865;53.672;10.250;2022-10-31T08:30:33;101818.41;;;12.21;100.00
1736;BME280;865;53.672;10.250;2022-10-31T08:33:02;101828.94;;;12.12;100.00
1736;BME280;865;53.672;10.250;2022-10-31T08:35:31;101825.31;;;12.26;100.00
1736;BME280;865;53.672;10.250;2022-10-31T08:37:58;101826.19;;;12.28;100.00
1736;BME280;865;53.672;10.250;2022-10-31T08:40:26;101823.53;;;12.31;100.00
1736;BME280;865;53.672;10.250;2022-10-31T08:43:01;101819.19;;;12.29;100.00
1736;BME280;865;53.672;10.250;2022-10-31T08:45:29;101818.31;;;12.30;100.00
1736;BME280;865;53.672;10.250;2022-10-31T08:48:00;101821.88;;;12.21;100.00
1736;BME280;865;53.672;10.250;2022-10-31T08:50:29;101814.81;;;12.31;100.00
1736;BME280;865;53.672;10.250;2022-10-31T08:53:05;101817.41;;;12.32;100.00
1736;BME280;865;53.672;10.250;2022-10-31T08:55:35;101819.94;;;12.40;100.00
1736;BME280;865;53.672;10.250;2022-10-31T08:58:04;101826.03;;;12.44;100.00
1736;BME280;865;53.672;10.250;2022-10-31T09:00:32;101829.59;;;12.37;100.00
1736;BME280;865;53.672;10.250;2022-10-31T09:03:01;101833.91;;;12.39;100.00
1736;BME280;865;53.672;10.250;2022-10-31T09:05:29;101827.19;;;12.14;100.00
1736;BME280;865;53.672;10.250;2022-10-31T09:08:00;101823.59;;;12.22;100.00
1736;BME280;865;53.672;10.250;2022-10-31T09:10:28;101814.81;;;12.31;100.00
1736;BME280;865;53.672;10.250;2022-10-31T09:12:59;101811.25;;;12.37;100.00
1736;BME280;865;53.672;10.250;2022-10-31T09:15:26;101818.22;;;12.41;100.00
1736;BME280;865;53.672;10.250;2022-10-31T09:17:53;101812.09;;;12.40;100.00
1736;BME280;865;53.672;10.250;2022-10-31T09:20:20;101808.69;;;12.34;100.00
1736;BME280;865;53.672;10.250;2022-10-31T09:22:47;101814.59;;;12.54;100.00
1736;BME280;865;53.672;10.250;2022-10-31T09:25:14;101803.97;;;12.68;100.00
1736;BME280;865;53.672;10.250;2022-10-31T09:27:40;101794.63;;;12.42;100.00
1736;BME280;865;53.672;10.250;2022-10-31T09:30:08;101796.56;;;12.26;100.00
1736;BME280;865;53.672;10.250;2022-10-31T09:32:34;101792.03;;;12.44;100.00
1736;BME280;865;53.672;10.250;2022-10-31T09:35:01;101801.44;;;12.60;100.00
1736;BME280;865;53.672;10.250;2022-10-31T09:37:27;101794.41;;;12.65;100.00
1736;BME280;865;53.672;10.250;2022-10-31T09:39:53;101784.78;;;12.67;100.00
1736;BME280;865;53.672;10.250;2022-10-31T09:51:01;101777.72;;;12.72;100.00
1736;BME280;865;53.672;10.250;2022-10-31T09:53:42;101783.81;;;12.74;100.00
1736;BME280;865;53.672;10.250;2022-10-31T09:56:14;101780.25;;;12.80;100.00
1736;BME280;865;53.672;10.250;2022-10-31T09:58:44;101774.28;;;12.70;100.00
1736;BME280;865;53.672;10.250;2022-10-31T10:01:21;101783.72;;;12.82;100.00
1736;BME280;865;53.672;10.250;2022-10-31T10:03:53;101795.81;;;12.94;100.00
1736;BME280;865;53.672;10.250;2022-10-31T10:06:27;101805.31;;;13.01;100.00
1736;BME280;865;53.672;10.250;2022-10-31T10:08:55;101807.88;;;13.04;100.00
1736;BME280;865;53.672;10.250;2022-10-31T10:11:38;101806.09;;;13.08;100.00
1736;BME280;865;53.672;10.250;2022-10-31T10:22:36;101801.63;;;13.16;100.00
1736;BME280;865;53.672;10.250;2022-10-31T10:25:20;101801.91;;;12.94;100.00
1736;BME280;865;53.672;10.250;2022-10-31T10:30:35;101788.91;;;12.87;100.00
1736;BME280;865;53.672;10.250;2022-10-31T10:33:11;101784.41;;;12.96;100.00
1736;BME280;865;53.672;10.250;2022-10-31T10:35:42;101780.91;;;12.96;100.00
1736;BME280;865;53.672;10.250;2022-10-31T10:41:18;101780.06;;;12.97;100.00
1736;BME280;865;53.672;10.250;2022-10-31T10:43:45;101786.13;;;12.99;100.00
1736;BME280;865;53.672;10.250;2022-10-31T10:46:27;101785.13;;;13.08;100.00
1736;BME280;865;53.672;10.250;2022-10-31T10:49:32;101779.03;;;13.09;100.00
1736;BME280;865;53.672;10.250;2022-10-31T11:00:41;101758.75;;;13.20;100.00
1736;BME280;865;53.672;10.250;2022-10-31T11:03:09;101758.94;;;13.09;100.00
1736;BME280;865;53.672;10.250;2022-10-31T11:05:56;101752.78;;;13.10;100.00
1736;BME280;865;53.672;10.250;2022-10-31T11:08:30;101753.63;;;13.14;100.00
1736;BME280;865;53.672;10.250;2022-10-31T11:13:33;101750.22;;;13.09;100.00
1736;BME280;865;53.672;10.250;2022-10-31T11:16:10;101750.13;;;13.15;100.00
1736;BME280;865;53.672;10.250;2022-10-31T11:18:41;101750.09;;;13.16;100.00
1736;BME280;865;53.672;10.250;2022-10-31T11:21:20;101754.47;;;13.14;100.00
1736;BME280;865;53.672;10.250;2022-10-31T11:23:46;101759.59;;;13.25;100.00
1736;BME280;865;53.672;10.250;2022-10-31T11:26:22;101753.41;;;13.29;100.00
1736;BME280;865;53.672;10.250;2022-10-31T11:28:58;101744.75;;;13.26;100.00
1736;BME280;865;53.672;10.250;2022-10-31T11:31:26;101744.66;;;13.33;100.00
1736;BME280;865;53.672;10.250;2022-10-31T11:34:00;101747.47;;;13.16;100.00
1736;BME280;865;53.672;10.250;2022-10-31T11:36:29;101747.50;;;13.13;100.00
1736;BME280;865;53.672;10.250;2022-10-31T11:38:58;101743.88;;;13.25;100.00
1736;BME280;865;53.672;10.250;2022-10-31T11:41:28;101742.84;;;13.35;100.00
1736;BME280;865;53.672;10.250;2022-10-31T11:44:05;101734.59;;;12.99;100.00
1736;BME280;865;53.672;10.250;2022-10-31T11:46:44;101743.22;;;13.09;100.00
1736;BME280;865;53.672;10.250;2022-10-31T11:49:42;101730.22;;;13.03;100.00
1736;BME280;865;53.672;10.250;2022-10-31T11:52:19;101731.28;;;12.88;100.00
1736;BME280;865;53.672;10.250;2022-10-31T11:54:48;101728.84;;;12.73;100.00
1736;BME280;865;53.672;10.250;2022-10-31T11:57:28;101740.09;;;12.81;100.00
1736;BME280;865;53.672;10.250;2022-10-31T11:59:58;101751.22;;;12.98;100.00
1736;BME280;865;53.672;10.250;2022-10-31T12:02:26;101747.50;;;13.13;100.00
1736;BME280;865;53.672;10.250;2022-10-31T12:05:04;101744.81;;;13.19;100.00
1736;BME280;865;53.672;10.250;2022-10-31T12:07:33;101740.25;;;13.34;100.00
1736;BME280;865;53.672;10.250;2022-10-31T12:10:00;101733.97;;;13.44;100.00
1736;BME280;865;53.672;10.250;2022-10-31T12:13:11;101724.44;;;13.38;100.00
1736;BME280;865;53.672;10.250;2022-10-31T12:15:47;101732.66;;;13.15;100.00
1736;BME280;865;53.672;10.250;2022-10-31T12:18:43;101720.63;;;12.99;100.00
1736;BME280;865;53.672;10.250;2022-10-31T12:27:19;101699.91;;;13.44;100.00
1736;BME280;865;53.672;10.250;2022-10-31T12:35:42;101706.78;;;13.51;100.00
1736;BME280;865;53.672;10.250;2022-10-31T12:38:33;101710.19;;;13.58;100.00
1736;BME280;865;53.672;10.250;2022-10-31T12:43:57;101685.09;;;13.43;100.00
1736;BME280;865;53.672;10.250;2022-10-31T12:49:14;101692.34;;;13.22;100.00
1736;BME280;865;53.672;10.250;2022-10-31T12:52:03;101699.41;;;13.17;100.00
1736;BME280;865;53.672;10.250;2022-10-31T12:55:00;101705.53;;;13.16;100.00
1736;BME280;865;53.672;10.250;2022-10-31T12:57:31;101706.28;;;13.28;100.00
1736;BME280;865;53.672;10.250;2022-10-31T13:00:09;101699.34;;;13.27;100.00
1736;BME280;865;53.672;10.250;2022-10-31T13:05:27;101699.81;;;13.50;100.00
1736;BME280;865;53.672;10.250;2022-10-31T13:08:00;101699.94;;;13.41;100.00
1736;BME280;865;53.672;10.250;2022-10-31T13:10:33;101697.47;;;13.33;100.00
1736;BME280;865;53.672;10.250;2022-10-31T13:13:06;101689.31;;;13.52;100.00
1736;BME280;865;53.672;10.250;2022-10-31T13:15:44;101688.50;;;13.48;100.00
1736;BME280;865;53.672;10.250;2022-10-31T13:18:19;101682.13;;;13.63;100.00
1736;BME280;865;53.672;10.250;2022-10-31T13:20:48;101683.16;;;13.54;100.00
1736;BME280;865;53.672;10.250;2022-10-31T13:23:29;101670.16;;;13.48;100.00
1736;BME280;865;53.672;10.250;2022-10-31T13:26:35;101670.16;;;13.47;100.00
1736;BME280;865;53.672;10.250;2022-10-31T13:31:41;101674.59;;;13.43;100.00
1736;BME280;865;53.672;10.250;2022-10-31T13:36:53;101673.84;;;13.35;100.00
1736;BME280;865;53.672;10.250;2022-10-31T13:39:39;101665.16;;;13.33;100.00
1736;BME280;865;53.672;10.250;2022-10-31T13:45:08;101658.22;;;13.30;100.00
1736;BME280;865;53.672;10.250;2022-10-31T13:47:37;101645.97;;;13.29;100.00
1736;BME280;865;53.672;10.250;2022-10-31T13:50:06;101646.09;;;13.20;100.00
1736;BME280;865;53.672;10.250;2022-10-31T13:52:32;101642.56;;;13.22;100.00
1736;BME280;865;53.672;10.250;2022-10-31T13:54:59;101649.63;;;13.19;100.00
1736;BME280;865;53.672;10.250;2022-10-31T13:57:38;101641.66;;;13.23;100.00
1736;BME280;865;53.672;10.250;2022-10-31T14:02:49;101635.66;;;13.17;100.00
1736;BME280;865;53.672;10.250;2022-10-31T14:05:26;101628.00;;;13.06;100.00
1736;BME280;865;53.672;10.250;2022-10-31T14:07:54;101628.81;;;13.08;100.00
1736;BME280;865;53.672;10.250;2022-10-31T14:10:47;101615.63;;;13.14;100.00
1736;BME280;865;53.672;10.250;2022-10-31T14:15:56;101620.06;;;13.11;100.00
1736;BME280;865;53.672;10.250;2022-10-31T14:18:38;101618.22;;;13.16;100.00
1736;BME280;865;53.672;10.250;2022-10-31T14:21:38;101620.00;;;13.14;100.00
1736;BME280;865;53.672;10.250;2022-10-31T14:29:23;101600.00;;;13.08;100.00
1736;BME280;865;53.672;10.250;2022-10-31T14:34:53;101594.25;;;12.86;100.00
1736;BME280;865;53.672;10.250;2022-10-31T14:43:08;101589.16;;;12.77;100.00
1736;BME280;865;53.672;10.250;2022-10-31T14:51:40;101586.66;;;12.69;100.00
1736;BME280;865;53.672;10.250;2022-10-31T14:54:12;101586.69;;;12.66;100.00
1736;BME280;865;53.672;10.250;2022-10-31T14:56:48;101576.38;;;12.57;100.00
1736;BME280;865;53.672;10.250;2022-10-31T14:59:20;101563.31;;;12.56;100.00
1736;BME280;865;53.672;10.250;2022-10-31T15:01:56;101560.69;;;12.54;100.00
1736;BME280;865;53.672;10.250;2022-10-31T15:04:25;101552.97;;;12.46;100.00
1736;BME280;865;53.672;10.250;2022-10-31T15:07:10;101549.38;;;12.52;100.00
1736;BME280;865;53.672;10.250;2022-10-31T15:09:39;101539.88;;;12.48;100.00